createdAt,value
2023-02-23T00:01:29.075Z,11.03
2023-02-23T00:03:57.285Z,10.96
2023-02-23T00:06:25.990Z,10.91
2023-02-23T00:08:53.074Z,10.93
2023-02-23T00:11:21.356Z,10.98
2023-02-23T00:13:50.209Z,11.01
2023-02-23T00:16:22.736Z,11.05
2023-02-23T00:18:54.920Z,11.08
2023-02-23T00:21:35.318Z,11.14
2023-02-23T00:24:08.819Z,11.18
2023-02-23T00:26:37.439Z,11.23
2023-02-23T00:29:07.093Z,11.22
2023-02-23T00:31:34.264Z,11.21
2023-02-23T00:34:02.711Z,11.19
2023-02-23T00:36:34.065Z,11.15
2023-02-23T00:39:20.600Z,11.08
2023-02-23T00:41:52.319Z,11.03
2023-02-23T00:44:21.001Z,11.05
2023-02-23T00:46:51.629Z,11.06
2023-02-23T00:49:19.642Z,10.95
2023-02-23T00:51:47.018Z,10.94
2023-02-23T00:54:15.309Z,10.97
2023-02-23T00:56:42.309Z,10.99
2023-02-23T00:59:09.090Z,10.96
2023-02-23T01:01:37.474Z,10.91
2023-02-23T01:04:04.760Z,10.93
2023-02-23T01:06:32.470Z,10.88
2023-02-23T01:08:59.101Z,10.84
2023-02-23T01:11:30.966Z,10.90
2023-02-23T01:13:59.986Z,10.90
2023-02-23T01:16:29.908Z,10.88
2023-02-23T01:18:58.309Z,10.92
2023-02-23T01:21:26.257Z,10.92
2023-02-23T01:23:53.759Z,10.94
2023-02-23T01:26:21.961Z,10.98
2023-02-23T01:28:50.507Z,11.00
2023-02-23T01:31:17.458Z,11.01
2023-02-23T01:33:44.542Z,10.96
2023-02-23T01:36:11.052Z,10.97
2023-02-23T01:38:37.880Z,10.96
2023-02-23T01:41:05.045Z,10.95
2023-02-23T01:43:31.551Z,10.91
2023-02-23T01:46:00.933Z,10.89
2023-02-23T01:48:32.618Z,10.90
2023-02-23T01:51:10.796Z,10.91
2023-02-23T01:53:42.645Z,10.90
2023-02-23T01:56:14.384Z,10.87
2023-02-23T01:58:45.879Z,10.84
2023-02-23T02:01:13.215Z,10.86
2023-02-23T02:03:43.927Z,10.84
2023-02-23T02:06:14.579Z,10.84
2023-02-23T02:08:46.315Z,10.79
2023-02-23T02:11:30.598Z,10.79
2023-02-23T02:14:05.009Z,10.79
2023-02-23T02:16:43.979Z,10.75
2023-02-23T02:19:28.866Z,10.70
2023-02-23T02:22:17.100Z,10.68
2023-02-23T02:25:17.629Z,10.65
2023-02-23T02:27:57.431Z,10.62
2023-02-23T02:30:30.071Z,10.66
2023-02-23T02:33:14.886Z,10.69
2023-02-23T02:36:10.068Z,10.72
2023-02-23T02:38:53.580Z,10.76
2023-02-23T02:41:35.748Z,10.78
2023-02-23T02:44:49.834Z,10.76
2023-02-23T02:47:34.613Z,10.74
2023-02-23T02:50:14.539Z,10.68
2023-02-23T02:52:47.723Z,10.67
2023-02-23T02:55:35.199Z,10.71
2023-02-23T02:58:04.511Z,10.72
2023-02-23T03:01:01.434Z,10.72
2023-02-23T03:03:55.541Z,10.72
2023-02-23T03:06:57.480Z,10.74
2023-02-23T03:10:06.279Z,10.75
2023-02-23T03:13:03.483Z,10.71
2023-02-23T03:15:57.399Z,10.71
2023-02-23T03:19:02.526Z,10.69
2023-02-23T03:22:02.367Z,10.71
2023-02-23T03:24:56.912Z,10.69
2023-02-23T03:28:02.935Z,10.63
2023-02-23T03:31:04.108Z,10.57
2023-02-23T03:34:03.104Z,10.60
2023-02-23T03:36:54.492Z,10.57
2023-02-23T03:39:57.971Z,10.59
2023-02-23T03:42:49.052Z,10.57
2023-02-23T03:45:38.466Z,10.57
2023-02-23T03:48:28.443Z,10.52
2023-02-23T03:51:18.247Z,10.55
2023-02-23T03:54:12.751Z,10.57
2023-02-23T03:57:03.131Z,10.63
2023-02-23T03:59:55.635Z,10.63
2023-02-23T04:02:42.108Z,10.61
2023-02-23T04:05:33.042Z,10.59
2023-02-23T04:08:20.889Z,10.57
2023-02-23T04:11:12.701Z,10.52
2023-02-23T04:13:40.395Z,10.53
2023-02-23T04:16:09.018Z,10.52
2023-02-23T04:18:38.760Z,10.53
2023-02-23T04:21:06.673Z,10.52
2023-02-23T04:23:33.204Z,10.54
2023-02-23T04:25:59.775Z,10.48
2023-02-23T04:28:27.820Z,10.45
2023-02-23T04:30:54.398Z,10.42
2023-02-23T04:33:22.281Z,10.42
2023-02-23T04:35:49.156Z,10.39
2023-02-23T04:38:15.724Z,10.37
2023-02-23T04:40:42.213Z,10.38
2023-02-23T04:43:11.828Z,10.33
2023-02-23T04:45:38.561Z,10.36
2023-02-23T04:48:05.578Z,10.36
2023-02-23T04:50:32.695Z,10.34
2023-02-23T04:52:59.364Z,10.38
2023-02-23T04:55:26.449Z,10.36
2023-02-23T04:57:59.064Z,10.38
2023-02-23T05:00:26.638Z,10.35
2023-02-23T05:02:53.200Z,10.37
2023-02-23T05:05:19.736Z,10.36
2023-02-23T05:07:46.245Z,10.32
2023-02-23T05:10:12.766Z,10.37
2023-02-23T05:12:39.250Z,10.34
2023-02-23T05:15:06.401Z,10.35
2023-02-23T05:17:32.882Z,10.33
2023-02-23T05:19:59.393Z,10.32
2023-02-23T05:22:25.919Z,10.36
2023-02-23T05:24:52.428Z,10.37
2023-02-23T05:27:19.130Z,10.37
2023-02-23T05:29:45.666Z,10.31
2023-02-23T05:32:12.365Z,10.31
2023-02-23T05:34:39.213Z,10.37
2023-02-23T05:37:06.221Z,10.38
2023-02-23T05:39:32.933Z,10.36
2023-02-23T05:41:59.467Z,10.38
2023-02-23T05:44:26.062Z,10.37
2023-02-23T05:46:52.936Z,10.37
2023-02-23T05:49:19.417Z,10.38
2023-02-23T05:51:45.872Z,10.39
2023-02-23T05:54:13.466Z,10.38
2023-02-23T05:56:41.152Z,10.35
2023-02-23T05:59:07.817Z,10.32
2023-02-23T06:01:34.322Z,10.36
2023-02-23T06:04:00.925Z,10.37
2023-02-23T06:06:28.470Z,10.28
2023-02-23T06:08:55.163Z,10.34
2023-02-23T06:11:21.972Z,10.32
2023-02-23T06:13:48.958Z,10.32
2023-02-23T06:16:15.858Z,10.30
2023-02-23T06:18:42.440Z,10.30
2023-02-23T06:21:08.928Z,10.32
2023-02-23T06:23:35.512Z,10.31
2023-02-23T06:26:02.284Z,10.28
2023-02-23T06:28:29.415Z,10.27
2023-02-23T06:30:56.125Z,10.25
2023-02-23T06:33:23.164Z,10.20
2023-02-23T06:35:49.933Z,10.19
2023-02-23T06:38:16.889Z,10.16
2023-02-23T06:40:43.698Z,10.19
2023-02-23T06:43:10.692Z,10.15
2023-02-23T06:45:37.279Z,10.20
2023-02-23T06:48:04.415Z,10.21
2023-02-23T06:50:31.019Z,10.23
2023-02-23T06:52:57.653Z,10.24
2023-02-23T06:55:24.536Z,10.20
2023-02-23T06:57:52.354Z,10.17
2023-02-23T07:00:19.334Z,10.23
2023-02-23T07:02:45.929Z,10.19
2023-02-23T07:05:12.438Z,10.17
2023-02-23T07:07:38.986Z,10.16
2023-02-23T07:10:06.274Z,10.16
2023-02-23T07:12:32.899Z,10.20
2023-02-23T07:14:59.399Z,10.16
2023-02-23T07:17:25.883Z,10.20
2023-02-23T07:19:52.502Z,10.18
2023-02-23T07:22:18.952Z,10.21
2023-02-23T07:24:46.280Z,10.25
2023-02-23T07:27:12.820Z,10.28
2023-02-23T07:29:39.296Z,10.24
2023-02-23T07:32:06.056Z,10.22
2023-02-23T07:34:32.640Z,10.24
2023-02-23T07:36:59.150Z,10.22
2023-02-23T07:39:25.737Z,10.27
2023-02-23T07:41:52.199Z,10.29
2023-02-23T07:44:19.526Z,10.31
2023-02-23T07:46:46.534Z,10.34
2023-02-23T07:49:13.872Z,10.32
2023-02-23T07:51:41.113Z,10.29
2023-02-23T07:54:07.719Z,10.32
2023-02-23T07:56:35.277Z,10.25
2023-02-23T07:59:02.641Z,10.29
2023-02-23T08:01:29.282Z,10.28
2023-02-23T08:03:55.925Z,10.26
2023-02-23T08:06:22.494Z,10.28
2023-02-23T08:08:49.195Z,10.28
2023-02-23T08:11:15.829Z,10.26
2023-02-23T08:13:42.545Z,10.28
2023-02-23T08:16:09.033Z,10.26
2023-02-23T08:18:35.685Z,10.26
2023-02-23T08:21:03.595Z,10.22
2023-02-23T08:23:34.935Z,10.20
2023-02-23T08:26:02.668Z,10.13
2023-02-23T08:28:30.846Z,10.14
2023-02-23T08:30:59.277Z,10.08
2023-02-23T08:33:25.952Z,10.12
2023-02-23T08:35:53.646Z,10.07
2023-02-23T08:38:20.425Z,10.11
2023-02-23T08:40:46.978Z,10.14
2023-02-23T08:43:13.487Z,10.12
2023-02-23T08:45:39.990Z,10.09
2023-02-23T08:48:07.819Z,10.11
2023-02-23T08:50:34.817Z,10.13
2023-02-23T08:53:01.386Z,10.12
2023-02-23T08:55:27.869Z,10.17
2023-02-23T08:57:54.368Z,10.19
2023-02-23T09:00:21.281Z,10.12
2023-02-23T09:02:48.297Z,10.17
2023-02-23T09:05:15.121Z,10.12
2023-02-23T09:07:45.067Z,10.12
2023-02-23T09:10:16.895Z,10.08
2023-02-23T09:12:43.417Z,10.06
2023-02-23T09:15:10.563Z,10.06
2023-02-23T09:17:37.998Z,10.04
2023-02-23T09:20:06.245Z,10.01
2023-02-23T09:22:32.791Z,10.03
2023-02-23T09:24:59.326Z,10.03
2023-02-23T09:27:26.102Z,9.98
2023-02-23T09:29:52.664Z,9.99
2023-02-23T09:32:19.370Z,10.01
2023-02-23T09:34:48.658Z,10.05
2023-02-23T09:37:15.743Z,10.09
2023-02-23T09:39:43.561Z,10.06
2023-02-23T09:42:17.044Z,10.15
2023-02-23T09:45:01.426Z,10.21
2023-02-23T09:47:27.921Z,10.30
2023-02-23T09:49:56.288Z,10.30
2023-02-23T09:52:28.111Z,10.42
2023-02-23T09:54:54.756Z,10.51
2023-02-23T09:57:36.605Z,10.57
2023-02-23T10:00:13.047Z,10.63
2023-02-23T10:03:00.918Z,10.59
2023-02-23T10:05:31.802Z,10.64
2023-02-23T10:08:16.508Z,10.60
2023-02-23T10:10:47.309Z,10.63
2023-02-23T10:13:31.876Z,10.63
2023-02-23T10:16:05.420Z,10.63
2023-02-23T10:18:52.292Z,10.57
2023-02-23T10:21:39.176Z,10.61
2023-02-23T10:24:26.936Z,10.59
2023-02-23T10:27:10.336Z,10.59
2023-02-23T10:29:51.602Z,10.64
2023-02-23T10:32:41.076Z,10.69
2023-02-23T10:35:14.741Z,10.57
2023-02-23T10:37:41.510Z,10.63
2023-02-23T10:40:16.637Z,10.57
2023-02-23T10:42:43.847Z,10.55
2023-02-23T10:45:19.657Z,10.54
2023-02-23T10:47:47.035Z,10.59
2023-02-23T10:50:15.048Z,10.59
2023-02-23T10:52:45.531Z,10.61
2023-02-23T10:55:28.675Z,10.59
2023-02-23T10:58:19.170Z,10.51
2023-02-23T11:00:55.523Z,10.56
2023-02-23T11:03:26.726Z,10.52
2023-02-23T11:05:53.832Z,10.53
2023-02-23T11:08:29.309Z,10.52
2023-02-23T11:10:57.129Z,10.46
2023-02-23T11:13:27.328Z,10.41
2023-02-23T11:16:10.744Z,10.40
2023-02-23T11:18:39.340Z,10.40
2023-02-23T11:21:12.333Z,10.28
2023-02-23T11:23:41.264Z,10.28
2023-02-23T11:26:41.703Z,10.23
2023-02-23T11:29:36.394Z,10.18
2023-02-23T11:32:31.500Z,10.20
2023-02-23T11:35:16.400Z,10.24
2023-02-23T11:37:42.921Z,10.14
2023-02-23T11:40:29.019Z,10.12
2023-02-23T11:43:19.056Z,10.08
2023-02-23T11:45:51.879Z,10.02
2023-02-23T11:48:22.211Z,10.06
2023-02-23T11:50:49.644Z,10.07
2023-02-23T11:53:29.980Z,10.02
2023-02-23T11:56:02.583Z,10.03
2023-02-23T11:58:39.388Z,10.07
2023-02-23T12:01:12.240Z,10.10
2023-02-23T12:03:47.764Z,10.15
2023-02-23T12:06:35.595Z,10.15
2023-02-23T12:09:05.249Z,10.24
2023-02-23T12:11:37.975Z,10.28
2023-02-23T12:14:18.745Z,10.26
2023-02-23T12:16:50.835Z,10.35
2023-02-23T12:19:20.313Z,10.39
2023-02-23T12:22:05.613Z,10.40
2023-02-23T12:25:04.918Z,10.35
2023-02-23T12:27:46.492Z,10.35
2023-02-23T12:30:45.837Z,10.39
2023-02-23T12:33:12.370Z,10.42
2023-02-23T12:35:45.669Z,10.43
2023-02-23T12:38:41.306Z,10.39
2023-02-23T12:41:19.176Z,10.39
2023-02-23T12:43:55.662Z,10.36
2023-02-23T12:46:26.698Z,10.41
2023-02-23T12:49:17.084Z,10.41
2023-02-23T12:51:51.628Z,10.37
2023-02-23T12:54:18.698Z,10.40
2023-02-23T12:57:12.557Z,10.35
2023-02-23T12:59:44.880Z,10.38
2023-02-23T13:02:33.705Z,10.37
2023-02-23T13:05:31.316Z,10.34
2023-02-23T13:08:23.425Z,10.38
2023-02-23T13:11:17.202Z,10.37
2023-02-23T13:13:59.990Z,10.35
2023-02-23T13:16:33.025Z,10.39
2023-02-23T13:19:19.578Z,10.40
2023-02-23T13:21:56.126Z,10.40
2023-02-23T13:24:47.365Z,10.40
2023-02-23T13:27:21.162Z,10.25
2023-02-23T13:29:49.833Z,10.26
2023-02-23T13:32:20.455Z,10.19
2023-02-23T13:35:12.949Z,10.04
2023-02-23T13:37:45.461Z,10.12
2023-02-23T13:40:46.612Z,10.08
2023-02-23T13:43:24.113Z,10.11
2023-02-23T13:46:01.845Z,10.12
2023-02-23T13:48:54.416Z,10.12
2023-02-23T13:51:27.025Z,10.15
2023-02-23T13:54:06.486Z,10.08
2023-02-23T13:56:42.165Z,10.12
2023-02-23T13:59:17.213Z,10.13
2023-02-23T14:01:46.207Z,10.17
2023-02-23T14:04:22.106Z,10.10
2023-02-23T14:07:22.171Z,10.09
2023-02-23T14:09:56.019Z,10.13
2023-02-23T14:12:39.857Z,10.11
2023-02-23T14:15:28.233Z,10.11
2023-02-23T14:18:02.518Z,10.12
2023-02-23T14:20:57.012Z,10.06
2023-02-23T14:23:23.641Z,10.10
2023-02-23T14:26:11.522Z,10.05
2023-02-23T14:28:44.582Z,10.12
2023-02-23T14:31:11.209Z,10.14
2023-02-23T14:33:48.435Z,10.15
2023-02-23T14:36:21.072Z,10.19
2023-02-23T14:39:01.134Z,10.21
2023-02-23T14:41:50.303Z,10.23
2023-02-23T14:44:34.817Z,10.26
2023-02-23T14:47:11.343Z,10.29
2023-02-23T14:49:43.590Z,10.32
2023-02-23T14:52:15.148Z,10.32
2023-02-23T14:54:41.682Z,10.33
2023-02-23T14:57:25.991Z,10.35
2023-02-23T15:00:07.189Z,10.27
2023-02-23T15:02:35.514Z,10.24
2023-02-23T15:05:18.009Z,10.24
2023-02-23T15:07:45.713Z,10.27
2023-02-23T15:10:46.018Z,10.26
2023-02-23T15:13:29.658Z,10.27
2023-02-23T15:15:58.742Z,10.24
2023-02-23T15:18:33.327Z,10.20
2023-02-23T15:21:12.059Z,10.17
2023-02-23T15:23:38.981Z,10.21
2023-02-23T15:26:33.025Z,10.23
2023-02-23T15:29:13.547Z,10.23
2023-02-23T15:31:50.163Z,10.25
2023-02-23T15:34:19.979Z,10.17
2023-02-23T15:36:57.735Z,10.19
2023-02-23T15:40:17.917Z,10.21
2023-02-23T15:42:48.243Z,10.22
2023-02-23T15:45:28.562Z,10.13
2023-02-23T15:47:57.538Z,10.15
2023-02-23T15:50:50.080Z,10.06
2023-02-23T15:53:38.155Z,10.12
2023-02-23T15:56:14.335Z,10.14
2023-02-23T15:58:56.366Z,10.16
2023-02-23T16:01:29.100Z,10.15
2023-02-23T16:04:05.562Z,10.15
2023-02-23T16:06:36.953Z,10.15
2023-02-23T16:09:20.980Z,10.15
2023-02-23T16:11:51.115Z,10.13
2023-02-23T16:14:20.067Z,10.09
2023-02-23T16:17:08.473Z,10.06
2023-02-23T16:19:40.975Z,10.06
2023-02-23T16:22:19.779Z,10.04
2023-02-23T16:24:56.532Z,10.03
2023-02-23T16:27:24.797Z,10.02
2023-02-23T16:30:00.222Z,9.96
2023-02-23T16:32:37.829Z,9.97
2023-02-23T16:35:17.349Z,9.92
2023-02-23T16:38:12.703Z,9.87
2023-02-23T16:40:40.976Z,9.89
2023-02-23T16:43:08.173Z,9.88
2023-02-23T16:45:35.143Z,9.88
2023-02-23T16:48:03.406Z,9.88
2023-02-23T16:50:30.552Z,9.92
2023-02-23T16:52:57.071Z,9.89
2023-02-23T16:55:26.336Z,9.92
2023-02-23T16:58:03.984Z,9.89
2023-02-23T17:00:32.896Z,9.87
2023-02-23T17:03:05.671Z,9.85
2023-02-23T17:05:32.893Z,9.86
2023-02-23T17:07:59.439Z,9.83
2023-02-23T17:10:32.686Z,9.84
2023-02-23T17:13:05.491Z,9.84
2023-02-23T17:15:41.338Z,9.78
2023-02-23T17:18:07.933Z,9.69
2023-02-23T17:20:34.425Z,9.70
2023-02-23T17:23:02.716Z,9.63
2023-02-23T17:25:29.385Z,9.65
2023-02-23T17:27:57.688Z,9.66
2023-02-23T17:30:24.853Z,9.67
2023-02-23T17:32:53.421Z,9.68
2023-02-23T17:35:20.348Z,9.61
2023-02-23T17:37:46.964Z,9.61
2023-02-23T17:40:26.165Z,9.63
2023-02-23T17:42:53.614Z,9.65
2023-02-23T17:45:20.174Z,9.65
2023-02-23T17:47:46.732Z,9.64
2023-02-23T17:50:13.321Z,9.62
2023-02-23T17:52:39.903Z,9.64
2023-02-23T17:55:07.282Z,9.61
2023-02-23T17:57:33.770Z,9.60
2023-02-23T18:00:00.303Z,9.59
2023-02-23T18:02:26.894Z,9.57
2023-02-23T18:04:53.646Z,9.60
2023-02-23T18:07:21.155Z,9.61
2023-02-23T18:09:50.130Z,9.62
2023-02-23T18:12:17.947Z,9.58
2023-02-23T18:14:45.499Z,9.51
2023-02-23T18:17:13.525Z,9.49
2023-02-23T18:19:40.052Z,9.55
2023-02-23T18:22:06.820Z,9.55
2023-02-23T18:24:33.498Z,9.58
2023-02-23T18:27:03.459Z,9.57
2023-02-23T18:29:32.013Z,9.61
2023-02-23T18:32:00.226Z,9.59
2023-02-23T18:34:28.743Z,9.59
2023-02-23T18:36:57.345Z,9.59
2023-02-23T18:39:24.046Z,9.56
2023-02-23T18:41:56.763Z,9.60
2023-02-23T18:44:25.583Z,9.56
2023-02-23T18:46:52.987Z,9.55
2023-02-23T18:49:22.266Z,9.56
2023-02-23T18:51:49.531Z,9.51
2023-02-23T18:54:19.081Z,9.47
2023-02-23T18:56:49.946Z,9.45
2023-02-23T18:59:16.754Z,9.44
2023-02-23T19:01:46.568Z,9.41
2023-02-23T19:04:13.213Z,9.40
2023-02-23T19:06:42.986Z,9.31
2023-02-23T19:09:12.543Z,9.30
2023-02-23T19:11:43.401Z,9.33
2023-02-23T19:14:16.088Z,9.35
2023-02-23T19:16:43.613Z,9.32
2023-02-23T19:19:10.134Z,9.37
2023-02-23T19:21:37.536Z,9.29
2023-02-23T19:24:05.608Z,9.25
2023-02-23T19:26:37.684Z,9.24
2023-02-23T19:29:12.371Z,9.19
2023-02-23T19:31:39.353Z,9.14
2023-02-23T19:34:10.616Z,9.16
2023-02-23T19:36:38.477Z,9.12
2023-02-23T19:39:17.613Z,9.09
2023-02-23T19:41:45.751Z,9.05
2023-02-23T19:44:12.244Z,9.05
2023-02-23T19:46:39.915Z,9.07
2023-02-23T19:49:18.731Z,9.10
2023-02-23T19:51:45.305Z,9.06
2023-02-23T19:54:12.015Z,9.02
2023-02-23T19:56:38.711Z,8.99
2023-02-23T19:59:23.356Z,9.08
2023-02-23T20:01:51.347Z,9.08
2023-02-23T20:04:19.203Z,9.10
2023-02-23T20:06:47.059Z,9.10
2023-02-23T20:09:23.984Z,9.08
2023-02-23T20:11:50.424Z,9.10
2023-02-23T20:14:17.178Z,9.16
2023-02-23T20:16:43.848Z,9.09
2023-02-23T20:19:11.553Z,9.14
2023-02-23T20:21:39.619Z,9.15
2023-02-23T20:24:06.403Z,9.14
2023-02-23T20:26:37.221Z,9.18
2023-02-23T20:29:13.641Z,9.20
2023-02-23T20:31:50.483Z,9.20
2023-02-23T20:34:21.093Z,9.19
2023-02-23T20:36:50.851Z,9.19
2023-02-23T20:39:17.796Z,9.09
2023-02-23T20:41:45.684Z,9.03
2023-02-23T20:44:13.221Z,9.02
2023-02-23T20:46:41.284Z,9.00
2023-02-23T20:49:12.702Z,8.91
2023-02-23T20:51:49.251Z,8.93
2023-02-23T20:54:18.782Z,8.82
2023-02-23T20:56:45.836Z,8.84
2023-02-23T20:59:17.286Z,8.77
2023-02-23T21:01:44.502Z,8.72
2023-02-23T21:04:23.637Z,8.67
2023-02-23T21:06:56.614Z,8.52
2023-02-23T21:09:25.735Z,8.53
2023-02-23T21:11:52.233Z,8.45
2023-02-23T21:14:18.793Z,8.30
2023-02-23T21:16:46.207Z,8.33
2023-02-23T21:19:14.654Z,8.35
2023-02-23T21:21:47.066Z,8.34
2023-02-23T21:24:15.123Z,8.32
2023-02-23T21:26:42.464Z,8.30
2023-02-23T21:29:11.719Z,8.29
2023-02-23T21:31:39.490Z,8.28
2023-02-23T21:34:08.117Z,8.25
2023-02-23T21:36:35.366Z,8.22
2023-02-23T21:39:01.899Z,8.24
2023-02-23T21:41:33.779Z,8.13
2023-02-23T21:44:01.552Z,8.16
2023-02-23T21:46:28.611Z,8.18
2023-02-23T21:48:55.185Z,8.16
2023-02-23T21:51:22.117Z,8.15
2023-02-23T21:53:48.924Z,8.17
2023-02-23T21:56:18.393Z,8.22
2023-02-23T21:58:53.051Z,8.24
2023-02-23T22:01:23.409Z,8.27
2023-02-23T22:03:50.781Z,8.28
2023-02-23T22:06:20.405Z,8.25
2023-02-23T22:08:49.917Z,8.18
2023-02-23T22:11:19.660Z,8.19
2023-02-23T22:13:51.039Z,8.17
2023-02-23T22:16:19.346Z,8.12
2023-02-23T22:18:46.639Z,8.09
2023-02-23T22:21:13.927Z,7.99
2023-02-23T22:23:41.629Z,8.01
2023-02-23T22:26:09.024Z,7.95
2023-02-23T22:28:35.987Z,7.85
2023-02-23T22:31:04.345Z,7.81
2023-02-23T22:33:30.985Z,7.79
2023-02-23T22:36:13.519Z,7.76
2023-02-23T22:38:42.811Z,7.73
2023-02-23T22:41:12.483Z,7.61
2023-02-23T22:43:40.919Z,7.60
2023-02-23T22:46:08.147Z,7.62
2023-02-23T22:48:36.020Z,7.60
2023-02-23T22:51:03.176Z,7.52
2023-02-23T22:53:30.505Z,7.47
2023-02-23T22:55:57.107Z,7.45
2023-02-23T22:58:26.447Z,7.47
2023-02-23T23:01:09.743Z,7.44
2023-02-23T23:03:39.630Z,7.38
2023-02-23T23:06:08.717Z,7.38
2023-02-23T23:08:43.307Z,7.36
2023-02-23T23:11:19.465Z,7.38
2023-02-23T23:13:48.916Z,7.41
2023-02-23T23:16:30.709Z,7.33
2023-02-23T23:19:02.639Z,7.36
2023-02-23T23:21:31.844Z,7.41
2023-02-23T23:24:01.277Z,7.45
2023-02-23T23:26:29.590Z,7.51
2023-02-23T23:28:58.118Z,7.48
2023-02-23T23:31:30.133Z,7.51
2023-02-23T23:34:02.441Z,7.52
2023-02-23T23:36:34.832Z,7.50
2023-02-23T23:39:02.800Z,7.46
2023-02-23T23:41:35.247Z,7.50
2023-02-23T23:44:05.292Z,7.50
2023-02-23T23:46:35.428Z,7.48
2023-02-23T23:49:08.621Z,7.47
2023-02-23T23:51:39.092Z,7.44
2023-02-23T23:54:07.994Z,7.44
2023-02-23T23:56:37.273Z,7.44
2023-02-23T23:59:08.596Z,7.40
